createdAt,value
2023-05-15T00:00:41.916Z,11.13
2023-05-15T00:03:08.485Z,11.65
2023-05-15T00:05:35.049Z,8.27
2023-05-15T00:08:01.432Z,14.10
2023-05-15T00:10:27.898Z,17.00
2023-05-15T00:12:55.171Z,11.68
2023-05-15T00:15:21.544Z,19.23
2023-05-15T00:17:48.016Z,14.73
2023-05-15T00:20:14.422Z,11.52
2023-05-15T00:22:40.881Z,11.37
2023-05-15T00:25:07.509Z,11.25
2023-05-15T00:27:33.893Z,12.85
2023-05-15T00:30:00.325Z,17.02
2023-05-15T00:32:26.776Z,14.95
2023-05-15T00:34:53.347Z,11.77
2023-05-15T00:37:19.744Z,13.40
2023-05-15T00:39:46.135Z,20.02
2023-05-15T00:42:13.228Z,12.85
2023-05-15T00:44:41.083Z,12.55
2023-05-15T00:47:07.860Z,12.10
2023-05-15T00:49:35.508Z,14.52
2023-05-15T00:52:03.677Z,11.13
2023-05-15T00:54:30.468Z,13.38
2023-05-15T00:56:57.990Z,13.73
2023-05-15T00:59:27.773Z,13.20
2023-05-15T01:01:54.305Z,13.60
2023-05-15T01:04:21.903Z,16.90
2023-05-15T01:06:48.977Z,13.63
2023-05-15T01:09:16.026Z,15.77
2023-05-15T01:11:42.782Z,14.13
2023-05-15T01:14:09.504Z,11.02
2023-05-15T01:16:36.380Z,19.60
2023-05-15T01:19:04.180Z,13.45
2023-05-15T01:21:36.463Z,16.38
2023-05-15T01:24:27.763Z,17.97
2023-05-15T01:27:13.315Z,17.83
2023-05-15T01:30:02.433Z,16.90
2023-05-15T01:32:35.757Z,21.85
2023-05-15T01:35:28.571Z,14.00
2023-05-15T01:38:15.371Z,14.17
2023-05-15T01:40:44.264Z,13.02
2023-05-15T01:43:18.438Z,15.93
2023-05-15T01:45:44.856Z,17.38
2023-05-15T01:48:13.775Z,15.43
2023-05-15T01:50:41.931Z,19.83
2023-05-15T01:53:10.359Z,16.25
2023-05-15T01:55:38.164Z,20.67
2023-05-15T01:58:05.300Z,18.02
2023-05-15T02:00:32.847Z,18.70
2023-05-15T02:02:59.999Z,17.63
2023-05-15T02:05:27.505Z,19.38
2023-05-15T02:07:54.924Z,24.08
2023-05-15T02:10:22.784Z,18.58
2023-05-15T02:12:50.101Z,22.13
2023-05-15T02:15:17.372Z,18.87
2023-05-15T02:17:43.904Z,21.00
2023-05-15T02:20:10.486Z,24.67
2023-05-15T02:22:36.849Z,23.23
2023-05-15T02:25:03.419Z,25.38
2023-05-15T02:27:43.681Z,27.73
2023-05-15T02:30:30.573Z,27.17
2023-05-15T02:33:11.601Z,25.73
2023-05-15T02:35:47.396Z,23.02
2023-05-15T02:38:18.779Z,23.65
2023-05-15T02:40:47.799Z,28.83
2023-05-15T02:43:17.729Z,23.77
2023-05-15T02:45:46.979Z,25.13
2023-05-15T02:48:15.491Z,24.67
2023-05-15T02:50:42.363Z,25.83
2023-05-15T02:53:09.860Z,24.27
2023-05-15T02:55:36.727Z,30.85
2023-05-15T02:58:03.751Z,19.00
2023-05-15T03:00:30.221Z,24.92
2023-05-15T03:02:56.689Z,22.58
2023-05-15T03:05:23.449Z,25.37
2023-05-15T03:07:50.212Z,23.98
2023-05-15T03:10:16.800Z,27.38
2023-05-15T03:12:43.631Z,23.33
2023-05-15T03:15:10.172Z,26.15
2023-05-15T03:17:36.607Z,21.67
2023-05-15T03:20:04.655Z,22.65
2023-05-15T03:22:31.044Z,27.33
2023-05-15T03:24:57.531Z,24.83
2023-05-15T03:27:23.844Z,28.40
2023-05-15T03:29:50.992Z,28.40
2023-05-15T03:32:17.742Z,24.38
2023-05-15T03:34:44.165Z,28.10
2023-05-15T03:37:10.719Z,28.20
2023-05-15T03:39:37.100Z,27.70
2023-05-15T03:42:03.627Z,29.03
2023-05-15T03:44:29.954Z,26.52
2023-05-15T03:46:56.461Z,29.13
2023-05-15T03:49:22.840Z,25.08
2023-05-15T03:51:49.441Z,28.52
2023-05-15T03:54:15.893Z,28.00
2023-05-15T03:56:42.369Z,26.98
2023-05-15T03:59:08.678Z,23.42
2023-05-15T04:01:41.541Z,22.05
2023-05-15T04:04:17.595Z,19.30
2023-05-15T04:06:44.033Z,28.90
2023-05-15T04:09:10.427Z,22.08
2023-05-15T04:11:36.748Z,26.95
2023-05-15T04:14:03.117Z,19.10
2023-05-15T04:16:29.529Z,19.77
2023-05-15T04:18:55.963Z,23.70
2023-05-15T04:21:22.321Z,17.88
2023-05-15T04:23:48.713Z,22.20
2023-05-15T04:26:15.075Z,18.15
2023-05-15T04:28:49.326Z,15.70
2023-05-15T04:31:23.813Z,17.87
2023-05-15T04:33:51.327Z,17.17
2023-05-15T04:36:17.854Z,19.67
2023-05-15T04:38:44.248Z,19.00
2023-05-15T04:41:11.193Z,16.17
2023-05-15T04:43:38.261Z,18.20
2023-05-15T04:46:05.154Z,18.15
2023-05-15T04:48:31.731Z,15.88
2023-05-15T04:50:58.133Z,16.80
2023-05-15T04:53:24.448Z,19.48
2023-05-15T04:55:51.540Z,22.20
2023-05-15T04:58:18.122Z,17.40
2023-05-15T05:00:44.502Z,19.33
2023-05-15T05:03:11.488Z,17.00
2023-05-15T05:05:37.930Z,18.30
2023-05-15T05:08:04.354Z,19.90
2023-05-15T05:10:30.852Z,21.15
2023-05-15T05:12:57.202Z,18.10
2023-05-15T05:15:23.755Z,21.08
2023-05-15T05:17:50.529Z,19.88
2023-05-15T05:20:17.050Z,17.00
2023-05-15T05:22:43.458Z,17.48
2023-05-15T05:25:10.052Z,20.63
2023-05-15T05:27:36.452Z,18.08
2023-05-15T05:30:03.303Z,20.63
2023-05-15T05:32:29.750Z,14.90
2023-05-15T05:34:56.138Z,15.68
2023-05-15T05:37:22.498Z,15.00
2023-05-15T05:39:49.000Z,15.00
2023-05-15T05:42:15.448Z,11.07
2023-05-15T05:44:42.044Z,12.40
2023-05-15T05:47:08.539Z,12.48
2023-05-15T05:49:35.040Z,13.90
2023-05-15T05:52:08.184Z,13.85
2023-05-15T05:54:34.924Z,10.65
2023-05-15T05:57:01.311Z,11.50
2023-05-15T05:59:29.190Z,9.88
2023-05-15T06:01:55.974Z,10.50
2023-05-15T06:04:22.459Z,10.60
2023-05-15T06:06:50.024Z,11.30
2023-05-15T06:09:16.686Z,11.77
2023-05-15T06:11:43.072Z,12.38
2023-05-15T06:14:09.588Z,10.70
2023-05-15T06:16:35.979Z,14.20
2023-05-15T06:19:02.492Z,15.05
2023-05-15T06:21:28.991Z,14.10
2023-05-15T06:23:55.537Z,15.00
2023-05-15T06:26:22.297Z,17.63
2023-05-15T06:28:48.710Z,12.30
2023-05-15T06:31:15.066Z,17.05
2023-05-15T06:33:41.403Z,13.00
2023-05-15T06:36:08.007Z,15.30
2023-05-15T06:38:34.571Z,13.85
2023-05-15T06:41:00.922Z,18.10
2023-05-15T06:43:27.256Z,13.55
2023-05-15T06:45:53.649Z,13.90
2023-05-15T06:48:20.042Z,15.98
2023-05-15T06:50:46.542Z,14.65
2023-05-15T06:53:14.554Z,13.13
2023-05-15T06:55:41.090Z,15.48
2023-05-15T06:58:07.513Z,13.13
2023-05-15T07:00:33.855Z,11.43
2023-05-15T07:03:00.249Z,13.88
2023-05-15T07:05:26.929Z,9.02
2023-05-15T07:07:53.573Z,13.07
2023-05-15T07:10:20.205Z,11.87
2023-05-15T07:12:46.542Z,9.98
2023-05-15T07:15:12.907Z,10.45
2023-05-15T07:17:39.546Z,9.20
2023-05-15T07:20:06.400Z,11.35
2023-05-15T07:22:34.440Z,9.63
2023-05-15T07:25:05.497Z,8.90
2023-05-15T07:27:32.078Z,9.68
2023-05-15T07:29:58.472Z,13.18
2023-05-15T07:32:24.799Z,9.07
2023-05-15T07:34:52.180Z,8.87
2023-05-15T07:37:18.539Z,7.97
2023-05-15T07:39:45.076Z,9.65
2023-05-15T07:42:11.621Z,9.25
2023-05-15T07:44:37.948Z,9.57
2023-05-15T07:47:04.456Z,9.87
2023-05-15T07:49:30.850Z,9.63
2023-05-15T07:51:57.296Z,9.60
2023-05-15T07:54:23.657Z,9.57
2023-05-15T07:56:50.049Z,9.35
2023-05-15T07:59:16.624Z,11.43
2023-05-15T08:01:43.074Z,15.20
2023-05-15T08:04:09.893Z,10.48
2023-05-15T08:06:38.237Z,10.32
2023-05-15T08:09:04.744Z,12.30
2023-05-15T08:11:31.587Z,10.20
2023-05-15T08:13:58.079Z,10.50
2023-05-15T08:16:24.620Z,10.32
2023-05-15T08:18:53.536Z,11.02
2023-05-15T08:21:20.027Z,9.10
2023-05-15T08:23:46.413Z,9.13
2023-05-15T08:26:12.788Z,8.50
2023-05-15T08:28:39.149Z,7.85
2023-05-15T08:31:05.563Z,9.32
2023-05-15T08:33:31.920Z,11.23
2023-05-15T08:35:58.557Z,9.17
2023-05-15T08:38:25.025Z,10.05
2023-05-15T08:40:54.306Z,8.95
2023-05-15T08:43:21.424Z,10.07
2023-05-15T08:45:48.948Z,10.25
2023-05-15T08:48:17.720Z,9.40
2023-05-15T08:50:44.515Z,8.77
2023-05-15T08:53:13.025Z,9.05
2023-05-15T08:55:40.299Z,8.68
2023-05-15T08:58:08.041Z,8.77
2023-05-15T09:00:35.015Z,9.90
2023-05-15T09:03:01.861Z,8.40
2023-05-15T09:05:29.264Z,10.18
2023-05-15T09:07:56.947Z,9.70
2023-05-15T09:10:23.484Z,8.98
2023-05-15T09:12:51.527Z,13.07
2023-05-15T09:15:22.324Z,9.77
2023-05-15T09:17:50.241Z,9.52
2023-05-15T09:20:37.404Z,8.50
2023-05-15T09:23:06.093Z,9.15
2023-05-15T09:25:40.766Z,7.87
2023-05-15T09:28:24.999Z,8.65
2023-05-15T09:30:57.429Z,7.97
2023-05-15T09:33:37.754Z,7.18
2023-05-15T09:36:06.592Z,10.60
2023-05-15T09:38:34.367Z,8.70
2023-05-15T09:41:08.226Z,7.93
2023-05-15T09:43:38.712Z,8.05
2023-05-15T09:46:06.344Z,8.25
2023-05-15T09:48:33.047Z,9.82
2023-05-15T09:51:00.404Z,8.17
2023-05-15T09:53:28.796Z,10.88
2023-05-15T09:55:56.015Z,8.43
2023-05-15T09:58:23.237Z,8.68
2023-05-15T10:00:49.892Z,9.43
2023-05-15T10:03:19.090Z,13.77
2023-05-15T10:05:45.873Z,8.77
2023-05-15T10:08:12.807Z,10.95
2023-05-15T10:10:39.335Z,10.48
2023-05-15T10:13:08.264Z,13.43
2023-05-15T10:15:35.197Z,15.57
2023-05-15T10:18:04.562Z,13.85
2023-05-15T10:20:32.875Z,15.43
2023-05-15T10:23:02.007Z,16.85
2023-05-15T10:25:59.923Z,15.82
2023-05-15T10:28:28.383Z,22.73
2023-05-15T10:30:59.110Z,17.58
2023-05-15T10:33:25.770Z,21.20
2023-05-15T10:35:53.045Z,22.30
2023-05-15T10:38:20.346Z,26.92
2023-05-15T10:40:47.478Z,28.03
2023-05-15T10:43:15.622Z,23.35
2023-05-15T10:45:42.894Z,23.95
2023-05-15T10:48:12.332Z,24.35
2023-05-15T10:50:39.037Z,29.10
2023-05-15T10:53:06.027Z,32.77
2023-05-15T10:55:32.621Z,32.15
2023-05-15T10:57:59.318Z,30.23
2023-05-15T11:00:27.875Z,26.17
2023-05-15T11:02:57.149Z,25.77
2023-05-15T11:05:24.760Z,31.23
2023-05-15T11:08:17.770Z,27.30
2023-05-15T11:10:44.717Z,26.95
2023-05-15T11:13:11.948Z,27.05
2023-05-15T11:15:46.706Z,23.05
2023-05-15T11:18:13.954Z,24.90
2023-05-15T11:20:42.612Z,23.08
2023-05-15T11:23:09.571Z,22.85
2023-05-15T11:25:37.008Z,21.13
2023-05-15T11:28:04.734Z,17.95
2023-05-15T11:30:39.365Z,15.77
2023-05-15T11:33:11.071Z,18.70
2023-05-15T11:35:43.421Z,22.65
2023-05-15T11:38:09.762Z,15.43
2023-05-15T11:40:56.581Z,18.98
2023-05-15T11:43:30.963Z,19.57
2023-05-15T11:45:58.728Z,17.23
2023-05-15T11:48:31.491Z,15.55
2023-05-15T11:50:57.997Z,17.17
2023-05-15T11:53:24.634Z,18.63
2023-05-15T11:55:54.171Z,15.80
2023-05-15T11:58:23.325Z,16.35
2023-05-15T12:00:51.585Z,14.18
2023-05-15T12:03:23.916Z,13.20
2023-05-15T12:05:59.001Z,12.48
2023-05-15T12:08:32.013Z,16.43
2023-05-15T12:10:59.840Z,9.63
2023-05-15T12:13:26.514Z,13.45
2023-05-15T12:15:55.380Z,10.32
2023-05-15T12:18:21.784Z,10.77
2023-05-15T12:20:49.654Z,11.23
2023-05-15T12:23:17.151Z,10.60
2023-05-15T12:25:46.140Z,10.27
2023-05-15T12:28:12.832Z,11.43
2023-05-15T12:30:39.870Z,8.82
2023-05-15T12:33:07.498Z,8.47
2023-05-15T12:35:35.781Z,8.13
2023-05-15T12:38:05.962Z,7.88
2023-05-15T12:40:36.576Z,7.13
2023-05-15T12:43:07.381Z,8.05
2023-05-15T12:45:36.253Z,6.90
2023-05-15T12:48:03.560Z,6.75
2023-05-15T12:50:33.147Z,7.47
2023-05-15T12:53:02.237Z,7.30
2023-05-15T12:55:33.364Z,7.60
2023-05-15T12:58:02.364Z,7.47
2023-05-15T13:00:29.853Z,7.75
2023-05-15T13:02:57.595Z,7.00
2023-05-15T13:05:25.823Z,7.45
2023-05-15T13:07:52.747Z,7.75
2023-05-15T13:10:23.842Z,6.63
2023-05-15T13:12:53.124Z,5.72
2023-05-15T13:15:25.478Z,5.93
2023-05-15T13:17:58.089Z,4.97
2023-05-15T13:20:25.003Z,5.70
2023-05-15T13:22:51.660Z,5.23
2023-05-15T13:25:19.952Z,5.28
2023-05-15T13:27:47.623Z,5.50
2023-05-15T13:30:15.123Z,5.20
2023-05-15T13:32:41.509Z,6.53
2023-05-15T13:35:08.768Z,6.90
2023-05-15T13:37:35.516Z,6.15
2023-05-15T13:40:02.202Z,7.55
2023-05-15T13:42:28.567Z,6.70
2023-05-15T13:44:54.957Z,6.70
2023-05-15T13:47:21.328Z,6.87
2023-05-15T13:49:47.679Z,7.63
2023-05-15T13:52:14.450Z,8.48
2023-05-15T13:54:40.981Z,7.25
2023-05-15T13:57:07.372Z,7.30
2023-05-15T13:59:33.778Z,5.37
2023-05-15T14:02:00.195Z,6.13
2023-05-15T14:04:26.639Z,7.25
2023-05-15T14:06:53.132Z,10.30
2023-05-15T14:09:19.521Z,11.52
2023-05-15T14:11:45.846Z,10.23
2023-05-15T14:14:12.243Z,10.02
2023-05-15T14:16:38.696Z,7.20
2023-05-15T14:19:05.216Z,6.97
2023-05-15T14:21:31.895Z,8.30
2023-05-15T14:23:58.220Z,5.67
2023-05-15T14:26:24.603Z,6.70
2023-05-15T14:28:51.022Z,13.02
2023-05-15T14:31:17.354Z,5.63
2023-05-15T14:33:43.674Z,5.43
2023-05-15T14:36:10.222Z,4.30
2023-05-15T14:38:37.672Z,7.40
2023-05-15T14:41:04.166Z,4.82
2023-05-15T14:43:30.525Z,5.07
2023-05-15T14:45:56.964Z,6.38
2023-05-15T14:48:23.348Z,4.73
2023-05-15T14:50:49.988Z,4.13
2023-05-15T14:53:16.324Z,5.15
2023-05-15T14:55:42.656Z,3.65
2023-05-15T14:58:11.238Z,5.07
2023-05-15T15:00:38.154Z,4.70
2023-05-15T15:03:04.954Z,6.28
2023-05-15T15:05:31.484Z,8.57
2023-05-15T15:08:06.559Z,3.85
2023-05-15T15:10:34.493Z,8.20
2023-05-15T15:13:01.311Z,9.73
2023-05-15T15:15:28.478Z,8.13
2023-05-15T15:17:58.690Z,7.57
2023-05-15T15:20:26.817Z,4.65
2023-05-15T15:22:54.311Z,5.90
2023-05-15T15:25:21.199Z,5.93
2023-05-15T15:27:48.812Z,7.10
2023-05-15T15:30:16.163Z,5.97
2023-05-15T15:32:44.442Z,6.38
2023-05-15T15:35:11.693Z,5.93
2023-05-15T15:37:39.008Z,3.93
2023-05-15T15:40:09.822Z,5.55
2023-05-15T15:42:36.245Z,7.82
2023-05-15T15:45:03.326Z,7.70
2023-05-15T15:47:30.855Z,6.05
2023-05-15T15:50:00.636Z,3.17
2023-05-15T15:52:27.440Z,3.13
2023-05-15T15:54:54.159Z,4.88
2023-05-15T15:57:21.027Z,2.85
2023-05-15T15:59:47.862Z,8.13
2023-05-15T16:02:14.194Z,5.33
2023-05-15T16:04:40.971Z,1.65
2023-05-15T16:07:07.495Z,5.00
2023-05-15T16:09:34.013Z,3.13
2023-05-15T16:12:01.651Z,3.13
2023-05-15T16:14:28.087Z,3.80
2023-05-15T16:16:55.035Z,2.65
2023-05-15T16:19:21.944Z,6.43
2023-05-15T16:21:49.284Z,4.20
2023-05-15T16:24:15.791Z,3.17
2023-05-15T16:26:42.171Z,2.67
2023-05-15T16:29:08.503Z,4.10
2023-05-15T16:31:35.914Z,1.50
2023-05-15T16:34:03.776Z,2.63
2023-05-15T16:36:31.338Z,2.92
2023-05-15T16:38:58.214Z,4.10
2023-05-15T16:41:24.539Z,3.10
2023-05-15T16:43:50.963Z,2.67
2023-05-15T16:46:17.381Z,1.95
2023-05-15T16:48:44.242Z,2.33
2023-05-15T16:51:10.769Z,2.77
2023-05-15T16:53:37.139Z,4.05
2023-05-15T16:56:04.206Z,2.55
2023-05-15T16:58:30.528Z,1.63
2023-05-15T17:00:56.918Z,3.70
2023-05-15T17:03:23.422Z,2.57
2023-05-15T17:05:50.006Z,3.25
2023-05-15T17:08:16.381Z,1.85
2023-05-15T17:10:42.823Z,1.80
2023-05-15T17:13:09.197Z,1.17
2023-05-15T17:15:36.141Z,3.37
2023-05-15T17:18:02.579Z,3.08
2023-05-15T17:20:28.941Z,3.53
2023-05-15T17:22:55.353Z,3.08
2023-05-15T17:25:21.761Z,1.33
2023-05-15T17:27:48.134Z,1.03
2023-05-15T17:30:14.753Z,1.95
2023-05-15T17:32:41.203Z,1.58
2023-05-15T17:35:08.246Z,2.45
2023-05-15T17:37:34.586Z,4.78
2023-05-15T17:40:01.085Z,7.13
2023-05-15T17:42:28.340Z,2.75
2023-05-15T17:44:56.390Z,1.60
2023-05-15T17:47:23.122Z,1.60
2023-05-15T17:49:49.558Z,6.07
2023-05-15T17:52:15.982Z,2.63
2023-05-15T17:54:42.319Z,3.03
2023-05-15T17:57:08.753Z,4.38
2023-05-15T17:59:35.168Z,2.45
2023-05-15T18:02:01.842Z,6.20
2023-05-15T18:04:28.344Z,3.17
2023-05-15T18:06:54.693Z,6.45
2023-05-15T18:09:23.844Z,4.47
2023-05-15T18:11:51.025Z,4.47
2023-05-15T18:14:17.439Z,5.30
2023-05-15T18:16:43.823Z,5.90
2023-05-15T18:19:10.471Z,6.05
2023-05-15T18:21:37.972Z,3.90
2023-05-15T18:24:05.074Z,7.70
2023-05-15T18:26:31.460Z,6.63
2023-05-15T18:28:57.879Z,9.30
2023-05-15T18:31:24.343Z,7.82
2023-05-15T18:33:50.809Z,5.28
2023-05-15T18:36:18.144Z,9.00
2023-05-15T18:38:44.500Z,8.27
2023-05-15T18:41:10.894Z,5.67
2023-05-15T18:43:37.256Z,6.72
2023-05-15T18:46:04.006Z,3.00
2023-05-15T18:48:30.607Z,4.95
2023-05-15T18:50:57.186Z,5.57
2023-05-15T18:53:23.574Z,6.10
2023-05-15T18:55:49.950Z,2.00
2023-05-15T18:58:16.379Z,2.80
2023-05-15T19:00:42.824Z,2.60
2023-05-15T19:03:09.584Z,3.13
2023-05-15T19:05:36.088Z,2.47
2023-05-15T19:08:03.072Z,2.88
2023-05-15T19:10:30.463Z,4.03
2023-05-15T19:12:57.651Z,5.00
2023-05-15T19:15:24.897Z,1.05
2023-05-15T19:17:51.836Z,1.70
2023-05-15T19:20:18.453Z,3.78
2023-05-15T19:22:44.889Z,2.78
2023-05-15T19:25:11.591Z,1.95
2023-05-15T19:27:37.992Z,1.17
2023-05-15T19:30:06.790Z,3.57
2023-05-15T19:32:33.467Z,1.25
2023-05-15T19:35:00.160Z,3.03
2023-05-15T19:37:26.566Z,1.27
2023-05-15T19:39:52.907Z,1.98
2023-05-15T19:42:19.249Z,1.57
2023-05-15T19:44:45.710Z,3.13
2023-05-15T19:47:12.068Z,1.40
2023-05-15T19:49:38.696Z,1.45
2023-05-15T19:52:05.326Z,4.47
2023-05-15T19:54:31.698Z,3.90
2023-05-15T19:56:58.581Z,1.05
2023-05-15T19:59:24.925Z,7.50
2023-05-15T20:01:51.328Z,1.98
2023-05-15T20:04:17.809Z,2.75
2023-05-15T20:06:44.200Z,2.27
2023-05-15T20:09:10.584Z,4.15
2023-05-15T20:11:36.908Z,1.42
2023-05-15T20:14:03.278Z,4.88
2023-05-15T20:16:29.734Z,4.88
2023-05-15T20:18:56.080Z,2.47
2023-05-15T20:21:22.566Z,3.67
2023-05-15T20:23:49.299Z,3.30
2023-05-15T20:26:15.654Z,2.97
2023-05-15T20:28:44.366Z,1.33
2023-05-15T20:31:11.692Z,2.70
2023-05-15T20:33:38.154Z,2.60
2023-05-15T20:36:05.264Z,2.53
2023-05-15T20:38:33.382Z,1.15
2023-05-15T20:40:59.939Z,4.68
2023-05-15T20:43:26.660Z,3.37
2023-05-15T20:45:53.194Z,3.08
2023-05-15T20:48:19.674Z,4.05
2023-05-15T20:50:46.221Z,3.83
2023-05-15T20:53:13.202Z,3.97
2023-05-15T20:55:39.561Z,2.10
2023-05-15T20:58:05.878Z,2.72
2023-05-15T21:00:32.297Z,2.60
2023-05-15T21:02:58.696Z,2.78
2023-05-15T21:05:25.194Z,3.53
2023-05-15T21:07:51.587Z,2.60
2023-05-15T21:10:17.959Z,3.70
2023-05-15T21:12:44.358Z,2.95
2023-05-15T21:15:11.075Z,7.35
2023-05-15T21:17:37.490Z,3.92
2023-05-15T21:20:04.856Z,2.73
2023-05-15T21:22:31.360Z,4.90
2023-05-15T21:24:57.766Z,7.50
2023-05-15T21:27:24.406Z,5.25
2023-05-15T21:29:51.225Z,4.28
2023-05-15T21:32:17.545Z,1.50
2023-05-15T21:34:43.945Z,4.32
2023-05-15T21:37:10.425Z,7.45
2023-05-15T21:39:36.832Z,6.45
2023-05-15T21:42:03.418Z,5.75
2023-05-15T21:44:29.760Z,3.80
2023-05-15T21:46:56.994Z,2.88
2023-05-15T21:49:23.429Z,7.32
2023-05-15T21:51:49.877Z,6.95
2023-05-15T21:54:16.211Z,5.38
2023-05-15T21:56:42.543Z,7.90
2023-05-15T21:59:10.404Z,4.75
2023-05-15T22:01:36.865Z,11.80
2023-05-15T22:04:04.082Z,4.95
2023-05-15T22:06:31.036Z,5.13
2023-05-15T22:08:57.625Z,3.93
2023-05-15T22:11:24.012Z,8.05
2023-05-15T22:13:50.374Z,9.60
2023-05-15T22:16:16.818Z,6.32
2023-05-15T22:18:45.365Z,4.65
2023-05-15T22:21:11.937Z,6.43
2023-05-15T22:23:38.384Z,5.35
2023-05-15T22:26:04.765Z,5.25
2023-05-15T22:28:31.076Z,6.13
2023-05-15T22:30:57.413Z,7.60
2023-05-15T22:33:24.500Z,7.27
2023-05-15T22:35:52.649Z,4.10
2023-05-15T22:38:19.497Z,8.77
2023-05-15T22:40:52.589Z,6.35
2023-05-15T22:43:19.522Z,3.97
2023-05-15T22:45:45.925Z,7.93
2023-05-15T22:48:12.335Z,5.05
2023-05-15T22:50:38.779Z,7.65
2023-05-15T22:53:05.199Z,8.60
2023-05-15T22:55:31.580Z,7.10
2023-05-15T22:57:57.944Z,12.07
2023-05-15T23:00:24.534Z,6.05
2023-05-15T23:02:54.992Z,6.82
2023-05-15T23:05:21.818Z,8.68
2023-05-15T23:07:48.656Z,8.27
2023-05-15T23:10:15.038Z,11.33
2023-05-15T23:12:41.472Z,13.98
2023-05-15T23:15:09.403Z,6.38
2023-05-15T23:17:36.422Z,4.80
2023-05-15T23:20:03.361Z,9.85
2023-05-15T23:22:29.693Z,11.57
2023-05-15T23:24:56.045Z,5.28
2023-05-15T23:27:22.403Z,10.98
2023-05-15T23:29:48.786Z,8.98
2023-05-15T23:32:15.300Z,4.57
2023-05-15T23:34:41.669Z,8.90
2023-05-15T23:37:08.066Z,6.75
2023-05-15T23:39:36.013Z,6.45
2023-05-15T23:42:02.444Z,7.38
2023-05-15T23:44:28.778Z,8.25
2023-05-15T23:46:55.282Z,4.23
2023-05-15T23:49:21.699Z,6.60
2023-05-15T23:51:48.106Z,3.88
2023-05-15T23:54:14.468Z,4.47
2023-05-15T23:56:41.036Z,4.13
2023-05-15T23:59:07.368Z,11.50
